sensor_id;sensor_type;location;lat;lon;timestamp;pressure;altitude;pressure_sealevel;temperature;humidity
36726;BME280;44936;52.086;5.150;2023-10-19T00:00:13;99983.91;;;12.54;100.00
36726;BME280;44936;52.086;5.150;2023-10-19T00:02:49;99966.22;;;12.64;100.00
36726;BME280;44936;52.086;5.150;2023-10-19T00:05:16;99989.75;;;12.70;100.00
36726;BME280;44936;52.086;5.150;2023-10-19T00:07:42;99978.97;;;12.84;100.00
36726;BME280;44936;52.086;5.150;2023-10-19T00:10:07;99974.69;;;12.78;100.00
36726;BME280;44936;52.086;5.150;2023-10-19T00:12:33;99976.31;;;12.85;100.00
36726;BME280;44936;52.086;5.150;2023-10-19T00:14:58;99989.50;;;12.84;100.00
36726;BME280;44936;52.086;5.150;2023-10-19T00:17:24;99983.16;;;12.94;100.00
36726;BME280;44936;52.086;5.150;2023-10-19T00:19:52;100002.66;;;12.84;100.00
36726;BME280;44936;52.086;5.150;2023-10-19T00:22:43;99991.31;;;12.82;100.00
36726;BME280;44936;52.086;5.150;2023-10-19T00:25:09;99976.22;;;12.88;100.00
36726;BME280;44936;52.086;5.150;2023-10-19T00:27:38;99990.13;;;12.95;100.00
36726;BME280;44936;52.086;5.150;2023-10-19T00:30:05;99985.41;;;13.12;100.00
36726;BME280;44936;52.086;5.150;2023-10-19T00:32:36;99970.78;;;12.99;100.00
36726;BME280;44936;52.086;5.150;2023-10-19T00:35:05;99982.06;;;13.04;100.00
36726;BME280;44936;52.086;5.150;2023-10-19T00:37:46;99989.59;;;13.22;100.00
36726;BME280;44936;52.086;5.150;2023-10-19T00:40:13;99985.78;;;12.94;100.00
36726;BME280;44936;52.086;5.150;2023-10-19T00:42:58;99975.81;;;13.10;100.00
36726;BME280;44936;52.086;5.150;2023-10-19T00:45:24;99976.78;;;13.04;100.00
36726;BME280;44936;52.086;5.150;2023-10-19T00:47:51;99984.59;;;13.09;100.00
36726;BME280;44936;52.086;5.150;2023-10-19T00:50:18;99979.03;;;13.24;100.00
36726;BME280;44936;52.086;5.150;2023-10-19T00:52:50;99947.94;;;12.99;100.00
36726;BME280;44936;52.086;5.150;2023-10-19T00:55:16;99960.28;;;12.96;100.00
36726;BME280;44936;52.086;5.150;2023-10-19T00:57:43;99960.13;;;13.03;100.00
36726;BME280;44936;52.086;5.150;2023-10-19T01:00:14;99960.66;;;13.21;100.00
36726;BME280;44936;52.086;5.150;2023-10-19T01:02:48;99973.69;;;13.28;100.00
36726;BME280;44936;52.086;5.150;2023-10-19T01:05:16;99974.53;;;13.29;100.00
36726;BME280;44936;52.086;5.150;2023-10-19T01:07:46;99961.47;;;13.24;100.00
36726;BME280;44936;52.086;5.150;2023-10-19T01:10:16;99976.31;;;13.28;100.00
36726;BME280;44936;52.086;5.150;2023-10-19T01:12:48;99974.22;;;13.43;100.00
36726;BME280;44936;52.086;5.150;2023-10-19T01:15:17;99974.16;;;13.46;100.00
36726;BME280;44936;52.086;5.150;2023-10-19T01:17:49;99968.81;;;13.49;100.00
36726;BME280;44936;52.086;5.150;2023-10-19T01:20:20;99978.50;;;13.48;100.00
36726;BME280;44936;52.086;5.150;2023-10-19T01:22:55;99962.03;;;13.39;100.00
36726;BME280;44936;52.086;5.150;2023-10-19T01:28:07;99980.97;;;13.56;100.00
36726;BME280;44936;52.086;5.150;2023-10-19T01:30:34;99963.38;;;13.56;100.00
36726;BME280;44936;52.086;5.150;2023-10-19T01:33:00;99968.69;;;13.55;100.00
36726;BME280;44936;52.086;5.150;2023-10-19T01:35:25;99976.47;;;13.59;100.00
36726;BME280;44936;52.086;5.150;2023-10-19T01:37:52;99932.97;;;13.43;100.00
36726;BME280;44936;52.086;5.150;2023-10-19T01:40:17;99965.03;;;13.62;100.00
36726;BME280;44936;52.086;5.150;2023-10-19T01:42:46;99959.66;;;13.65;100.00
36726;BME280;44936;52.086;5.150;2023-10-19T01:45:14;99960.25;;;13.76;100.00
36726;BME280;44936;52.086;5.150;2023-10-19T01:47:39;99969.69;;;13.86;100.00
36726;BME280;44936;52.086;5.150;2023-10-19T01:50:06;99966.16;;;13.87;100.00
36726;BME280;44936;52.086;5.150;2023-10-19T01:52:32;99931.50;;;13.67;100.00
36726;BME280;44936;52.086;5.150;2023-10-19T01:54:57;99960.63;;;13.98;100.00
36726;BME280;44936;52.086;5.150;2023-10-19T01:57:27;99965.72;;;14.06;100.00
36726;BME280;44936;52.086;5.150;2023-10-19T01:59:52;99970.97;;;14.06;100.00
36726;BME280;44936;52.086;5.150;2023-10-19T02:02:18;99964.53;;;14.17;100.00
36726;BME280;44936;52.086;5.150;2023-10-19T02:04:46;99964.63;;;14.14;100.00
36726;BME280;44936;52.086;5.150;2023-10-19T02:07:14;99971.47;;;14.20;100.00
36726;BME280;44936;52.086;5.150;2023-10-19T02:09:43;99923.59;;;14.03;100.00
36726;BME280;44936;52.086;5.150;2023-10-19T02:12:08;99934.88;;;14.08;100.00
36726;BME280;44936;52.086;5.150;2023-10-19T02:14:34;99978.13;;;14.35;100.00
36726;BME280;44936;52.086;5.150;2023-10-19T02:17:00;99975.31;;;14.42;100.00
36726;BME280;44936;52.086;5.150;2023-10-19T02:19:28;99975.09;;;14.52;100.00
36726;BME280;44936;52.086;5.150;2023-10-19T02:21:59;99974.34;;;14.47;100.00
36726;BME280;44936;52.086;5.150;2023-10-19T02:24:26;99979.41;;;14.54;100.00
36726;BME280;44936;52.086;5.150;2023-10-19T02:26:53;99980.31;;;14.53;100.00
36726;BME280;44936;52.086;5.150;2023-10-19T02:29:20;99962.81;;;14.51;100.00
36726;BME280;44936;52.086;5.150;2023-10-19T02:31:47;99972.03;;;14.67;100.00
36726;BME280;44936;52.086;5.150;2023-10-19T02:34:13;99956.28;;;14.64;100.00
36726;BME280;44936;52.086;5.150;2023-10-19T02:36:43;99959.78;;;14.64;100.00
36726;BME280;44936;52.086;5.150;2023-10-19T02:39:10;99959.53;;;14.73;100.00
36726;BME280;44936;52.086;5.150;2023-10-19T02:41:38;99949.31;;;14.61;100.00
36726;BME280;44936;52.086;5.150;2023-10-19T02:44:07;99955.41;;;14.63;100.00
36726;BME280;44936;52.086;5.150;2023-10-19T02:46:37;99945.66;;;14.67;100.00
36726;BME280;44936;52.086;5.150;2023-10-19T02:49:07;99958.66;;;14.73;100.00
36726;BME280;44936;52.086;5.150;2023-10-19T02:51:37;99950.94;;;14.65;100.00
36726;BME280;44936;52.086;5.150;2023-10-19T02:54:04;99945.94;;;14.87;100.00
36726;BME280;44936;52.086;5.150;2023-10-19T02:56:31;99938.88;;;14.88;100.00
36726;BME280;44936;52.086;5.150;2023-10-19T02:58:56;99924.22;;;14.78;100.00
36726;BME280;44936;52.086;5.150;2023-10-19T03:01:29;99944.16;;;14.88;100.00
36726;BME280;44936;52.086;5.150;2023-10-19T03:03:57;99929.47;;;14.79;100.00
36726;BME280;44936;52.086;5.150;2023-10-19T03:06:26;99947.13;;;15.07;100.00
36726;BME280;44936;52.086;5.150;2023-10-19T03:08:56;99940.72;;;15.15;100.00
36726;BME280;44936;52.086;5.150;2023-10-19T03:11:27;99950.25;;;15.21;100.00
36726;BME280;44936;52.086;5.150;2023-10-19T03:13:56;99906.78;;;15.01;100.00
36726;BME280;44936;52.086;5.150;2023-10-19T03:16:22;99898.84;;;15.01;100.00
36726;BME280;44936;52.086;5.150;2023-10-19T03:18:49;99934.28;;;15.24;100.00
36726;BME280;44936;52.086;5.150;2023-10-19T03:21:16;99907.25;;;14.86;100.00
36726;BME280;44936;52.086;5.150;2023-10-19T03:23:42;99918.53;;;14.91;100.00
36726;BME280;44936;52.086;5.150;2023-10-19T03:26:08;99937.25;;;15.13;100.00
36726;BME280;44936;52.086;5.150;2023-10-19T03:28:52;99932.03;;;15.10;100.00
36726;BME280;44936;52.086;5.150;2023-10-19T03:31:23;99936.72;;;15.02;100.00
36726;BME280;44936;52.086;5.150;2023-10-19T03:33:52;99933.81;;;15.11;100.00
36726;BME280;44936;52.086;5.150;2023-10-19T03:36:21;99925.25;;;15.03;100.00
36726;BME280;44936;52.086;5.150;2023-10-19T03:38:47;99893.84;;;14.92;100.00
36726;BME280;44936;52.086;5.150;2023-10-19T03:41:15;99921.00;;;14.97;100.00
36726;BME280;44936;52.086;5.150;2023-10-19T03:43:40;99919.75;;;15.09;100.00
36726;BME280;44936;52.086;5.150;2023-10-19T03:46:06;99915.25;;;15.13;100.00
36726;BME280;44936;52.086;5.150;2023-10-19T03:48:44;99898.16;;;14.96;100.00
36726;BME280;44936;52.086;5.150;2023-10-19T03:51:11;99900.63;;;15.02;100.00
36726;BME280;44936;52.086;5.150;2023-10-19T03:53:38;99895.44;;;14.98;100.00
36726;BME280;44936;52.086;5.150;2023-10-19T03:56:05;99920.50;;;15.14;100.00
36726;BME280;44936;52.086;5.150;2023-10-19T03:58:36;99913.72;;;15.06;100.00
36726;BME280;44936;52.086;5.150;2023-10-19T04:01:03;99904.00;;;15.06;100.00
36726;BME280;44936;52.086;5.150;2023-10-19T04:03:30;99912.69;;;15.11;100.00
36726;BME280;44936;52.086;5.150;2023-10-19T04:05:56;99893.63;;;15.00;100.00
36726;BME280;44936;52.086;5.150;2023-10-19T04:08:22;99904.47;;;14.91;100.00
36726;BME280;44936;52.086;5.150;2023-10-19T04:10:51;99909.41;;;15.01;100.00
36726;BME280;44936;52.086;5.150;2023-10-19T04:13:35;99901.50;;;15.01;100.00
36726;BME280;44936;52.086;5.150;2023-10-19T04:16:04;99898.97;;;14.98;100.00
36726;BME280;44936;52.086;5.150;2023-10-19T04:18:34;99903.31;;;14.99;100.00
36726;BME280;44936;52.086;5.150;2023-10-19T04:21:00;99892.34;;;14.84;100.00
36726;BME280;44936;52.086;5.150;2023-10-19T04:23:27;99881.56;;;14.62;100.00
36726;BME280;44936;52.086;5.150;2023-10-19T04:25:54;99901.72;;;14.64;100.00
36726;BME280;44936;52.086;5.150;2023-10-19T04:28:23;99904.41;;;14.63;100.00
36726;BME280;44936;52.086;5.150;2023-10-19T04:31:08;99902.03;;;14.54;100.00
36726;BME280;44936;52.086;5.150;2023-10-19T04:33:38;99904.66;;;14.54;100.00
36726;BME280;44936;52.086;5.150;2023-10-19T04:36:04;99855.88;;;14.36;100.00
36726;BME280;44936;52.086;5.150;2023-10-19T04:38:33;99887.66;;;14.64;100.00
36726;BME280;44936;52.086;5.150;2023-10-19T04:41:06;99890.56;;;14.55;100.00
36726;BME280;44936;52.086;5.150;2023-10-19T04:43:33;99891.22;;;14.63;100.00
36726;BME280;44936;52.086;5.150;2023-10-19T04:45:59;99857.34;;;14.48;100.00
36726;BME280;44936;52.086;5.150;2023-10-19T04:48:24;99895.66;;;14.61;100.00
36726;BME280;44936;52.086;5.150;2023-10-19T04:50:49;99897.13;;;14.71;100.00
36726;BME280;44936;52.086;5.150;2023-10-19T04:53:15;99891.94;;;14.68;100.00
36726;BME280;44936;52.086;5.150;2023-10-19T04:55:40;99883.03;;;14.72;100.00
36726;BME280;44936;52.086;5.150;2023-10-19T04:58:06;99855.97;;;14.64;100.00
36726;BME280;44936;52.086;5.150;2023-10-19T05:00:31;99855.00;;;14.68;100.00
36726;BME280;44936;52.086;5.150;2023-10-19T05:02:58;99898.25;;;14.92;100.00
36726;BME280;44936;52.086;5.150;2023-10-19T05:05:23;99904.47;;;14.91;100.00
36726;BME280;44936;52.086;5.150;2023-10-19T05:07:48;99906.25;;;14.90;100.00
36726;BME280;44936;52.086;5.150;2023-10-19T05:10:14;99907.84;;;14.96;100.00
36726;BME280;44936;52.086;5.150;2023-10-19T05:12:39;99917.97;;;15.11;100.00
36726;BME280;44936;52.086;5.150;2023-10-19T05:15:05;99909.66;;;14.94;100.00
36726;BME280;44936;52.086;5.150;2023-10-19T05:17:31;99921.53;;;15.09;100.00
36726;BME280;44936;52.086;5.150;2023-10-19T05:19:56;99921.47;;;15.10;100.00
36726;BME280;44936;52.086;5.150;2023-10-19T05:22:21;99930.25;;;15.12;100.00
36726;BME280;44936;52.086;5.150;2023-10-19T05:24:50;99930.19;;;15.14;100.00
36726;BME280;44936;52.086;5.150;2023-10-19T05:27:15;99921.47;;;15.12;100.00
36726;BME280;44936;52.086;5.150;2023-10-19T05:29:41;99926.75;;;15.12;100.00
36726;BME280;44936;52.086;5.150;2023-10-19T05:32:06;99938.81;;;15.19;100.00
36726;BME280;44936;52.086;5.150;2023-10-19T05:34:32;99940.19;;;15.32;100.00
36726;BME280;44936;52.086;5.150;2023-10-19T05:37:01;99931.22;;;15.38;100.00
36726;BME280;44936;52.086;5.150;2023-10-19T05:39:28;99930.91;;;15.19;100.00
36726;BME280;44936;52.086;5.150;2023-10-19T05:41:55;99931.59;;;15.25;100.00
36726;BME280;44936;52.086;5.150;2023-10-19T05:44:20;99942.38;;;15.47;100.00
36726;BME280;44936;52.086;5.150;2023-10-19T05:46:45;99899.31;;;15.16;100.00
36726;BME280;44936;52.086;5.150;2023-10-19T05:49:12;99943.56;;;15.37;100.00
36726;BME280;44936;52.086;5.150;2023-10-19T05:51:37;99960.59;;;15.56;100.00
36726;BME280;44936;52.086;5.150;2023-10-19T05:54:03;99962.59;;;15.48;100.00
36726;BME280;44936;52.086;5.150;2023-10-19T05:56:29;99961.69;;;15.49;100.00
36726;BME280;44936;52.086;5.150;2023-10-19T05:59:01;99954.56;;;15.51;100.00
36726;BME280;44936;52.086;5.150;2023-10-19T06:01:27;99961.53;;;15.54;100.00
36726;BME280;44936;52.086;5.150;2023-10-19T06:03:53;99955.72;;;15.43;100.00
36726;BME280;44936;52.086;5.150;2023-10-19T06:06:22;99955.25;;;15.58;100.00
36726;BME280;44936;52.086;5.150;2023-10-19T06:08:47;99954.31;;;15.61;100.00
36726;BME280;44936;52.086;5.150;2023-10-19T06:11:13;99948.94;;;15.64;100.00
36726;BME280;44936;52.086;5.150;2023-10-19T06:13:38;99943.66;;;15.64;100.00
36726;BME280;44936;52.086;5.150;2023-10-19T06:16:04;99959.13;;;15.76;100.00
36726;BME280;44936;52.086;5.150;2023-10-19T06:18:29;99941.91;;;15.63;100.00
36726;BME280;44936;52.086;5.150;2023-10-19T06:20:55;99955.66;;;15.74;100.00
36726;BME280;44936;52.086;5.150;2023-10-19T06:23:21;99954.22;;;15.64;100.00
36726;BME280;44936;52.086;5.150;2023-10-19T06:25:46;99955.66;;;15.74;100.00
36726;BME280;44936;52.086;5.150;2023-10-19T06:28:12;99959.78;;;15.53;100.00
36726;BME280;44936;52.086;5.150;2023-10-19T06:30:37;99957.31;;;15.48;100.00
36726;BME280;44936;52.086;5.150;2023-10-19T06:33:03;99957.25;;;15.50;100.00
36726;BME280;44936;52.086;5.150;2023-10-19T06:35:32;99944.91;;;15.50;100.00
36726;BME280;44936;52.086;5.150;2023-10-19T06:37:59;99956.28;;;15.52;100.00
36726;BME280;44936;52.086;5.150;2023-10-19T06:40:25;99953.94;;;15.43;100.00
36726;BME280;44936;52.086;5.150;2023-10-19T06:42:58;99958.31;;;15.44;100.00
36726;BME280;44936;52.086;5.150;2023-10-19T06:45:24;99967.41;;;15.65;100.00
36726;BME280;44936;52.086;5.150;2023-10-19T06:47:51;99969.44;;;15.54;100.00
36726;BME280;44936;52.086;5.150;2023-10-19T06:50:19;99978.63;;;15.72;100.00
36726;BME280;44936;52.086;5.150;2023-10-19T06:52:45;99984.72;;;15.44;100.00
36726;BME280;44936;52.086;5.150;2023-10-19T06:55:14;99975.19;;;15.40;100.00
36726;BME280;44936;52.086;5.150;2023-10-19T06:57:47;99983.91;;;15.42;100.00
36726;BME280;44936;52.086;5.150;2023-10-19T07:00:15;99989.84;;;15.50;100.00
36726;BME280;44936;52.086;5.150;2023-10-19T07:02:43;99993.56;;;15.43;100.00
36726;BME280;44936;52.086;5.150;2023-10-19T07:05:15;99969.16;;;15.35;100.00
36726;BME280;44936;52.086;5.150;2023-10-19T07:07:46;99985.66;;;15.43;100.00
36726;BME280;44936;52.086;5.150;2023-10-19T07:10:12;99993.25;;;15.54;100.00
36726;BME280;44936;52.086;5.150;2023-10-19T07:12:43;100008.91;;;15.62;100.00
36726;BME280;44936;52.086;5.150;2023-10-19T07:15:09;100000.75;;;15.69;100.00
36726;BME280;44936;52.086;5.150;2023-10-19T07:17:40;99998.88;;;15.73;100.00
36726;BME280;44936;52.086;5.150;2023-10-19T07:20:06;99981.41;;;15.67;100.00
36726;BME280;44936;52.086;5.150;2023-10-19T07:22:32;100002.22;;;15.78;100.00
36726;BME280;44936;52.086;5.150;2023-10-19T07:24:57;100003.16;;;15.77;100.00
36726;BME280;44936;52.086;5.150;2023-10-19T07:27:23;100006.81;;;15.73;100.00
36726;BME280;44936;52.086;5.150;2023-10-19T07:29:50;100009.94;;;16.12;100.00
36726;BME280;44936;52.086;5.150;2023-10-19T07:32:15;100010.59;;;15.92;100.00
36726;BME280;44936;52.086;5.150;2023-10-19T07:34:42;99998.38;;;15.88;100.00
36726;BME280;44936;52.086;5.150;2023-10-19T07:37:12;100006.13;;;16.21;100.00
36726;BME280;44936;52.086;5.150;2023-10-19T07:39:49;100014.56;;;16.32;100.00
36726;BME280;44936;52.086;5.150;2023-10-19T07:42:17;100003.59;;;16.42;100.00
36726;BME280;44936;52.086;5.150;2023-10-19T07:44:42;99990.34;;;16.44;100.00
36726;BME280;44936;52.086;5.150;2023-10-19T07:47:11;100005.00;;;16.28;100.00
36726;BME280;44936;52.086;5.150;2023-10-19T07:49:37;100012.34;;;16.20;100.00
36726;BME280;44936;52.086;5.150;2023-10-19T07:52:06;100002.25;;;16.31;100.00
36726;BME280;44936;52.086;5.150;2023-10-19T07:54:37;100004.69;;;16.37;100.00
36726;BME280;44936;52.086;5.150;2023-10-19T07:57:03;99985.41;;;16.33;100.00
36726;BME280;44936;52.086;5.150;2023-10-19T07:59:32;99995.97;;;16.35;100.00
36726;BME280;44936;52.086;5.150;2023-10-19T08:01:57;99991.47;;;16.37;100.00
36726;BME280;44936;52.086;5.150;2023-10-19T08:04:22;100007.94;;;16.45;100.00
36726;BME280;44936;52.086;5.150;2023-10-19T08:06:50;100001.06;;;16.39;100.00
36726;BME280;44936;52.086;5.150;2023-10-19T08:09:15;99997.19;;;16.50;100.00
36726;BME280;44936;52.086;5.150;2023-10-19T08:11:48;100000.63;;;16.53;100.00
36726;BME280;44936;52.086;5.150;2023-10-19T08:14:13;99993.47;;;16.55;100.00
36726;BME280;44936;52.086;5.150;2023-10-19T08:16:39;99988.19;;;16.55;100.00
36726;BME280;44936;52.086;5.150;2023-10-19T08:19:06;99994.47;;;16.53;100.00
36726;BME280;44936;52.086;5.150;2023-10-19T08:21:32;99993.34;;;16.58;100.00
36726;BME280;44936;52.086;5.150;2023-10-19T08:23:59;100005.47;;;16.65;100.00
36726;BME280;44936;52.086;5.150;2023-10-19T08:26:32;100000.91;;;16.70;100.00
36726;BME280;44936;52.086;5.150;2023-10-19T08:28:57;99993.56;;;16.79;100.00
36726;BME280;44936;52.086;5.150;2023-10-19T08:31:25;99979.13;;;16.62;100.00
36726;BME280;44936;52.086;5.150;2023-10-19T08:33:51;99979.41;;;16.80;100.00
36726;BME280;44936;52.086;5.150;2023-10-19T08:36:19;99972.41;;;16.77;100.00
36726;BME280;44936;52.086;5.150;2023-10-19T08:38:46;99978.88;;;16.93;100.00
36726;BME280;44936;52.086;5.150;2023-10-19T08:41:13;99973.53;;;16.95;100.00
36726;BME280;44936;52.086;5.150;2023-10-19T08:43:39;99958.13;;;17.06;100.00
36726;BME280;44936;52.086;5.150;2023-10-19T08:46:05;99963.41;;;17.06;100.00
36726;BME280;44936;52.086;5.150;2023-10-19T08:48:34;99971.25;;;17.33;100.00
36726;BME280;44936;52.086;5.150;2023-10-19T08:51:03;99964.72;;;17.41;100.00
36726;BME280;44936;52.086;5.150;2023-10-19T08:53:36;99952.78;;;17.30;100.00
36726;BME280;44936;52.086;5.150;2023-10-19T08:56:06;99951.91;;;17.52;100.00
36726;BME280;44936;52.086;5.150;2023-10-19T08:58:32;99958.22;;;17.48;100.00
36726;BME280;44936;52.086;5.150;2023-10-19T09:00:58;99939.72;;;17.70;100.00
36726;BME280;44936;52.086;5.150;2023-10-19T09:03:31;99937.91;;;17.93;100.00
36726;BME280;44936;52.086;5.150;2023-10-19T09:05:57;99930.56;;;17.99;100.00
36726;BME280;44936;52.086;5.150;2023-10-19T09:08:22;99951.16;;;17.93;100.00
36726;BME280;44936;52.086;5.150;2023-10-19T09:10:48;99938.28;;;18.05;100.00
36726;BME280;44936;52.086;5.150;2023-10-19T09:13:14;99921.72;;;17.99;100.00
36726;BME280;44936;52.086;5.150;2023-10-19T09:15:43;99911.66;;;18.27;100.00
36726;BME280;44936;52.086;5.150;2023-10-19T09:18:13;99920.69;;;18.44;100.00
36726;BME280;44936;52.086;5.150;2023-10-19T09:20:47;99923.22;;;18.26;100.00
36726;BME280;44936;52.086;5.150;2023-10-19T09:23:23;99924.13;;;18.05;100.00
36726;BME280;44936;52.086;5.150;2023-10-19T09:25:52;99919.44;;;18.11;100.00
36726;BME280;44936;52.086;5.150;2023-10-19T09:28:18;99930.78;;;18.15;100.00
36726;BME280;44936;52.086;5.150;2023-10-19T09:30:44;99924.00;;;18.08;100.00
36726;BME280;44936;52.086;5.150;2023-10-19T09:33:13;99930.47;;;18.01;100.00
36726;BME280;44936;52.086;5.150;2023-10-19T09:35:40;99938.50;;;17.99;100.00
36726;BME280;44936;52.086;5.150;2023-10-19T09:38:08;99919.75;;;18.04;100.00
36726;BME280;44936;52.086;5.150;2023-10-19T09:40:34;99906.06;;;17.93;100.00
36726;BME280;44936;52.086;5.150;2023-10-19T09:43:03;99912.75;;;17.81;100.00
36726;BME280;44936;52.086;5.150;2023-10-19T09:45:30;99933.56;;;17.70;100.00
36726;BME280;44936;52.086;5.150;2023-10-19T09:48:00;99893.06;;;17.43;100.00
36726;BME280;44936;52.086;5.150;2023-10-19T09:50:27;99931.47;;;17.78;100.00
36726;BME280;44936;52.086;5.150;2023-10-19T09:52:52;99907.91;;;17.70;100.00
36726;BME280;44936;52.086;5.150;2023-10-19T09:55:24;99928.91;;;17.75;100.00
36726;BME280;44936;52.086;5.150;2023-10-19T09:58:06;99934.28;;;17.95;100.00
36726;BME280;44936;52.086;5.150;2023-10-19T10:00:35;99915.03;;;17.90;100.00
36726;BME280;44936;52.086;5.150;2023-10-19T10:03:00;99924.69;;;18.13;100.00
36726;BME280;44936;52.086;5.150;2023-10-19T10:10:45;99929.44;;;18.05;100.00
36726;BME280;44936;52.086;5.150;2023-10-19T10:15:51;99929.84;;;18.36;100.00
36726;BME280;44936;52.086;5.150;2023-10-19T10:18:17;99888.28;;;18.35;100.00
36726;BME280;44936;52.086;5.150;2023-10-19T10:20:43;99881.38;;;18.72;100.00
36726;BME280;44936;52.086;5.150;2023-10-19T10:23:21;99870.19;;;18.64;100.00
36726;BME280;44936;52.086;5.150;2023-10-19T10:25:47;99832.22;;;18.62;100.00
36726;BME280;44936;52.086;5.150;2023-10-19T10:28:18;99816.38;;;18.60;100.00
36726;BME280;44936;52.086;5.150;2023-10-19T10:31:13;99873.28;;;18.75;100.00
36726;BME280;44936;52.086;5.150;2023-10-19T10:36:08;99867.03;;;18.95;100.00
36726;BME280;44936;52.086;5.150;2023-10-19T10:38:34;99855.09;;;18.66;100.00
36726;BME280;44936;52.086;5.150;2023-10-19T10:41:03;99864.66;;;18.89;100.00
36726;BME280;44936;52.086;5.150;2023-10-19T10:43:29;99859.81;;;19.16;100.00
36726;BME280;44936;52.086;5.150;2023-10-19T10:46:05;99822.44;;;19.02;100.00
36726;BME280;44936;52.086;5.150;2023-10-19T10:48:34;99824.78;;;19.27;100.00
36726;BME280;44936;52.086;5.150;2023-10-19T10:51:01;99796.19;;;19.13;100.00
36726;BME280;44936;52.086;5.150;2023-10-19T10:53:27;99830.75;;;18.94;100.00
36726;BME280;44936;52.086;5.150;2023-10-19T10:56:00;99823.88;;;19.09;100.00
36726;BME280;44936;52.086;5.150;2023-10-19T10:58:28;99840.34;;;19.51;100.00
36726;BME280;44936;52.086;5.150;2023-10-19T11:00:54;99832.03;;;19.59;100.00
36726;BME280;44936;52.086;5.150;2023-10-19T11:03:19;99788.53;;;19.60;100.00
36726;BME280;44936;52.086;5.150;2023-10-19T11:05:47;99780.06;;;19.87;100.00
36726;BME280;44936;52.086;5.150;2023-10-19T11:08:14;99808.16;;;20.09;100.00
36726;BME280;44936;52.086;5.150;2023-10-19T11:10:42;99784.00;;;19.79;100.00
36726;BME280;44936;52.086;5.150;2023-10-19T11:13:10;99820.78;;;19.89;100.00
36726;BME280;44936;52.086;5.150;2023-10-19T11:15:37;99829.16;;;19.81;100.00
36726;BME280;44936;52.086;5.150;2023-10-19T11:18:04;99809.97;;;19.92;100.00
36726;BME280;44936;52.086;5.150;2023-10-19T11:20:29;99816.78;;;19.80;100.00
36726;BME280;44936;52.086;5.150;2023-10-19T11:22:57;99832.88;;;19.60;100.00
36726;BME280;44936;52.086;5.150;2023-10-19T11:25:26;99835.13;;;19.50;100.00
36726;BME280;44936;52.086;5.150;2023-10-19T11:27:59;99840.31;;;19.53;100.00
36726;BME280;44936;52.086;5.150;2023-10-19T11:30:29;99835.00;;;19.88;100.00
36726;BME280;44936;52.086;5.150;2023-10-19T11:32:55;99823.34;;;20.07;100.00
36726;BME280;44936;52.086;5.150;2023-10-19T11:35:28;99821.31;;;19.78;100.00
36726;BME280;44936;52.086;5.150;2023-10-19T11:37:57;99814.28;;;19.77;100.00
36726;BME280;44936;52.086;5.150;2023-10-19T11:40:24;99829.13;;;20.16;100.00
36726;BME280;44936;52.086;5.150;2023-10-19T11:42:53;99765.91;;;19.69;100.00
36726;BME280;44936;52.086;5.150;2023-10-19T11:45:28;99806.66;;;20.04;100.00
36726;BME280;44936;52.086;5.150;2023-10-19T11:47:54;99772.63;;;19.93;100.00
36726;BME280;44936;52.086;5.150;2023-10-19T11:50:21;99765.72;;;20.06;100.00
36726;BME280;44936;52.086;5.150;2023-10-19T11:52:47;99772.91;;;20.04;100.00
36726;BME280;44936;52.086;5.150;2023-10-19T11:55:13;99748.16;;;19.69;100.00
36726;BME280;44936;52.086;5.150;2023-10-19T11:57:44;99766.91;;;20.01;100.00
36726;BME280;44936;52.086;5.150;2023-10-19T12:00:11;99758.53;;;20.08;100.00
36726;BME280;44936;52.086;5.150;2023-10-19T12:02:45;99784.09;;;20.11;100.00
36726;BME280;44936;52.086;5.150;2023-10-19T12:05:11;99772.47;;;19.96;100.00
36726;BME280;44936;52.086;5.150;2023-10-19T12:07:37;99783.06;;;20.14;100.00
36726;BME280;44936;52.086;5.150;2023-10-19T12:10:07;99774.53;;;19.57;100.00
36726;BME280;44936;52.086;5.150;2023-10-19T12:12:34;99761.72;;;19.65;100.00
36726;BME280;44936;52.086;5.150;2023-10-19T12:14:59;99771.69;;;19.77;100.00
36726;BME280;44936;52.086;5.150;2023-10-19T12:17:25;99786.47;;;19.48;100.00
36726;BME280;44936;52.086;5.150;2023-10-19T12:19:53;99778.09;;;19.56;100.00
36726;BME280;44936;52.086;5.150;2023-10-19T12:22:19;99777.69;;;19.29;100.00
36726;BME280;44936;52.086;5.150;2023-10-19T12:24:48;99793.78;;;19.25;100.00
36726;BME280;44936;52.086;5.150;2023-10-19T12:27:33;99774.88;;;19.49;100.00
36726;BME280;44936;52.086;5.150;2023-10-19T12:30:01;99778.47;;;19.31;100.00
36726;BME280;44936;52.086;5.150;2023-10-19T12:32:36;99803.50;;;19.63;100.00
36726;BME280;44936;52.086;5.150;2023-10-19T12:35:02;99749.00;;;19.52;100.00
36726;BME280;44936;52.086;5.150;2023-10-19T12:37:36;99742.13;;;19.48;100.00
36726;BME280;44936;52.086;5.150;2023-10-19T12:40:13;99732.97;;;19.37;100.00
36726;BME280;44936;52.086;5.150;2023-10-19T12:42:55;99768.97;;;19.61;100.00
36726;BME280;44936;52.086;5.150;2023-10-19T12:45:26;99780.84;;;19.37;100.00
36726;BME280;44936;52.086;5.150;2023-10-19T12:48:05;99766.81;;;19.33;100.00
36726;BME280;44936;52.086;5.150;2023-10-19T12:50:33;99761.28;;;19.38;100.00
36726;BME280;44936;52.086;5.150;2023-10-19T12:52:59;99780.59;;;19.41;100.00
36726;BME280;44936;52.086;5.150;2023-10-19T12:55:26;99790.00;;;19.12;100.00
36726;BME280;44936;52.086;5.150;2023-10-19T12:57:54;99777.22;;;18.65;100.00
36726;BME280;44936;52.086;5.150;2023-10-19T13:00:22;99792.38;;;18.62;100.00
36726;BME280;44936;52.086;5.150;2023-10-19T13:03:05;99795.19;;;18.59;100.00
36726;BME280;44936;52.086;5.150;2023-10-19T13:05:34;99810.97;;;18.62;100.00
36726;BME280;44936;52.086;5.150;2023-10-19T13:08:00;99786.28;;;18.41;100.00